sensor_id;sensor_type;location;lat;lon;timestamp;P1;durP1;ratioP1;P2;durP2;ratioP2
26407;SDS011;14583;43.604;1.364;2023-03-01T00:01:07;22.25;;;15.18;;
26407;SDS011;14583;43.604;1.364;2023-03-01T00:03:38;26.30;;;14.55;;
26407;SDS011;14583;43.604;1.364;2023-03-01T00:06:04;22.75;;;13.93;;
26407;SDS011;14583;43.604;1.364;2023-03-01T00:08:30;23.88;;;14.13;;
26407;SDS011;14583;43.604;1.364;2023-03-01T00:11:01;22.23;;;14.45;;
26407;SDS011;14583;43.604;1.364;2023-03-01T00:13:29;27.90;;;15.38;;
26407;SDS011;14583;43.604;1.364;2023-03-01T00:15:55;25.13;;;15.32;;
26407;SDS011;14583;43.604;1.364;2023-03-01T00:18:20;24.38;;;14.25;;
26407;SDS011;14583;43.604;1.364;2023-03-01T00:20:53;21.77;;;14.52;;
26407;SDS011;14583;43.604;1.364;2023-03-01T00:23:20;21.73;;;14.52;;
26407;SDS011;14583;43.604;1.364;2023-03-01T00:25:47;20.73;;;13.70;;
26407;SDS011;14583;43.604;1.364;2023-03-01T00:28:13;20.02;;;13.18;;
26407;SDS011;14583;43.604;1.364;2023-03-01T00:30:39;20.92;;;14.57;;
26407;SDS011;14583;43.604;1.364;2023-03-01T00:33:04;21.77;;;13.30;;
26407;SDS011;14583;43.604;1.364;2023-03-01T00:35:31;20.23;;;13.35;;
26407;SDS011;14583;43.604;1.364;2023-03-01T00:37:58;19.38;;;12.93;;
26407;SDS011;14583;43.604;1.364;2023-03-01T00:40:24;21.23;;;12.85;;
26407;SDS011;14583;43.604;1.364;2023-03-01T00:42:51;21.13;;;13.55;;
26407;SDS011;14583;43.604;1.364;2023-03-01T00:45:17;20.35;;;12.90;;
26407;SDS011;14583;43.604;1.364;2023-03-01T00:47:43;19.02;;;12.60;;
26407;SDS011;14583;43.604;1.364;2023-03-01T00:50:09;19.83;;;12.27;;
26407;SDS011;14583;43.604;1.364;2023-03-01T00:52:35;21.58;;;13.02;;
26407;SDS011;14583;43.604;1.364;2023-03-01T00:55:02;19.27;;;13.30;;
26407;SDS011;14583;43.604;1.364;2023-03-01T00:57:29;16.80;;;11.93;;
26407;SDS011;14583;43.604;1.364;2023-03-01T00:59:54;20.00;;;12.38;;
26407;SDS011;14583;43.604;1.364;2023-03-01T01:02:20;15.48;;;11.48;;
26407;SDS011;14583;43.604;1.364;2023-03-01T01:04:46;15.68;;;10.65;;
26407;SDS011;14583;43.604;1.364;2023-03-01T01:07:12;18.35;;;11.57;;
26407;SDS011;14583;43.604;1.364;2023-03-01T01:09:38;14.73;;;10.95;;
26407;SDS011;14583;43.604;1.364;2023-03-01T01:12:04;17.40;;;11.02;;
26407;SDS011;14583;43.604;1.364;2023-03-01T01:14:30;13.68;;;10.57;;
26407;SDS011;14583;43.604;1.364;2023-03-01T01:16:56;17.05;;;10.85;;
26407;SDS011;14583;43.604;1.364;2023-03-01T01:19:21;16.63;;;11.07;;
26407;SDS011;14583;43.604;1.364;2023-03-01T01:21:48;18.38;;;11.90;;
26407;SDS011;14583;43.604;1.364;2023-03-01T01:24:14;16.42;;;10.82;;
26407;SDS011;14583;43.604;1.364;2023-03-01T01:26:41;16.48;;;11.32;;
26407;SDS011;14583;43.604;1.364;2023-03-01T01:29:08;19.00;;;11.23;;
26407;SDS011;14583;43.604;1.364;2023-03-01T01:31:34;21.73;;;12.40;;
26407;SDS011;14583;43.604;1.364;2023-03-01T01:34:01;22.00;;;12.60;;
26407;SDS011;14583;43.604;1.364;2023-03-01T01:36:28;19.90;;;12.25;;
26407;SDS011;14583;43.604;1.364;2023-03-01T01:38:54;21.05;;;12.77;;
26407;SDS011;14583;43.604;1.364;2023-03-01T01:41:20;22.85;;;13.18;;
26407;SDS011;14583;43.604;1.364;2023-03-01T01:43:48;17.17;;;11.65;;
26407;SDS011;14583;43.604;1.364;2023-03-01T01:46:34;19.35;;;12.23;;
26407;SDS011;14583;43.604;1.364;2023-03-01T01:49:32;21.58;;;12.93;;
26407;SDS011;14583;43.604;1.364;2023-03-01T01:52:09;28.25;;;13.77;;
26407;SDS011;14583;43.604;1.364;2023-03-01T01:57:22;23.00;;;13.75;;
26407;SDS011;14583;43.604;1.364;2023-03-01T01:59:51;28.35;;;14.13;;
26407;SDS011;14583;43.604;1.364;2023-03-01T02:02:19;30.08;;;14.80;;
26407;SDS011;14583;43.604;1.364;2023-03-01T02:04:46;21.63;;;12.70;;
26407;SDS011;14583;43.604;1.364;2023-03-01T02:07:16;22.05;;;12.95;;
26407;SDS011;14583;43.604;1.364;2023-03-01T02:09:48;21.33;;;11.95;;
26407;SDS011;14583;43.604;1.364;2023-03-01T02:12:19;20.77;;;12.82;;
26407;SDS011;14583;43.604;1.364;2023-03-01T02:14:47;21.02;;;13.38;;
26407;SDS011;14583;43.604;1.364;2023-03-01T02:17:14;21.98;;;13.15;;
26407;SDS011;14583;43.604;1.364;2023-03-01T02:22:23;24.08;;;13.63;;
26407;SDS011;14583;43.604;1.364;2023-03-01T02:30:33;20.98;;;11.68;;
26407;SDS011;14583;43.604;1.364;2023-03-01T02:32:59;19.08;;;12.63;;
26407;SDS011;14583;43.604;1.364;2023-03-01T02:35:33;23.80;;;12.70;;
26407;SDS011;14583;43.604;1.364;2023-03-01T02:40:29;31.08;;;14.20;;
26407;SDS011;14583;43.604;1.364;2023-03-01T02:42:57;23.13;;;13.27;;
26407;SDS011;14583;43.604;1.364;2023-03-01T02:45:24;21.55;;;12.82;;
26407;SDS011;14583;43.604;1.364;2023-03-01T02:47:55;18.65;;;11.85;;
26407;SDS011;14583;43.604;1.364;2023-03-01T02:55:32;19.55;;;11.93;;
26407;SDS011;14583;43.604;1.364;2023-03-01T02:57:58;18.50;;;11.98;;
26407;SDS011;14583;43.604;1.364;2023-03-01T03:00:33;17.35;;;12.10;;
26407;SDS011;14583;43.604;1.364;2023-03-01T03:03:15;17.85;;;11.60;;
26407;SDS011;14583;43.604;1.364;2023-03-01T03:05:44;15.82;;;11.50;;
26407;SDS011;14583;43.604;1.364;2023-03-01T03:08:09;15.25;;;11.30;;
26407;SDS011;14583;43.604;1.364;2023-03-01T03:10:37;16.80;;;11.85;;
26407;SDS011;14583;43.604;1.364;2023-03-01T03:13:08;16.25;;;11.32;;
26407;SDS011;14583;43.604;1.364;2023-03-01T03:15:36;19.13;;;12.02;;
26407;SDS011;14583;43.604;1.364;2023-03-01T03:18:04;19.90;;;12.82;;
26407;SDS011;14583;43.604;1.364;2023-03-01T03:20:32;19.90;;;13.02;;
26407;SDS011;14583;43.604;1.364;2023-03-01T03:22:58;19.42;;;13.88;;
26407;SDS011;14583;43.604;1.364;2023-03-01T03:25:24;20.63;;;13.57;;
26407;SDS011;14583;43.604;1.364;2023-03-01T03:27:52;25.15;;;13.93;;
26407;SDS011;14583;43.604;1.364;2023-03-01T03:30:21;20.75;;;13.90;;
26407;SDS011;14583;43.604;1.364;2023-03-01T03:32:49;22.88;;;14.43;;
26407;SDS011;14583;43.604;1.364;2023-03-01T03:37:49;21.63;;;14.43;;
26407;SDS011;14583;43.604;1.364;2023-03-01T03:40:30;22.27;;;13.55;;
26407;SDS011;14583;43.604;1.364;2023-03-01T03:43:04;22.48;;;12.90;;
26407;SDS011;14583;43.604;1.364;2023-03-01T03:45:35;23.02;;;14.15;;
26407;SDS011;14583;43.604;1.364;2023-03-01T03:48:01;20.85;;;13.55;;
26407;SDS011;14583;43.604;1.364;2023-03-01T03:50:29;18.58;;;13.68;;
26407;SDS011;14583;43.604;1.364;2023-03-01T03:52:55;18.83;;;12.98;;
26407;SDS011;14583;43.604;1.364;2023-03-01T03:55:21;23.00;;;14.55;;
26407;SDS011;14583;43.604;1.364;2023-03-01T03:57:47;20.35;;;13.82;;
26407;SDS011;14583;43.604;1.364;2023-03-01T04:00:20;18.63;;;13.10;;
26407;SDS011;14583;43.604;1.364;2023-03-01T04:02:48;24.25;;;14.13;;
26407;SDS011;14583;43.604;1.364;2023-03-01T04:05:16;21.20;;;14.43;;
26407;SDS011;14583;43.604;1.364;2023-03-01T04:07:43;20.60;;;14.05;;
26407;SDS011;14583;43.604;1.364;2023-03-01T04:10:14;22.90;;;14.18;;
26407;SDS011;14583;43.604;1.364;2023-03-01T04:12:42;22.40;;;14.35;;
26407;SDS011;14583;43.604;1.364;2023-03-01T04:15:08;26.15;;;14.98;;
26407;SDS011;14583;43.604;1.364;2023-03-01T04:17:41;24.55;;;15.23;;
26407;SDS011;14583;43.604;1.364;2023-03-01T04:20:13;25.90;;;15.77;;
26407;SDS011;14583;43.604;1.364;2023-03-01T04:22:49;25.05;;;15.10;;
26407;SDS011;14583;43.604;1.364;2023-03-01T04:25:17;25.45;;;15.77;;
26407;SDS011;14583;43.604;1.364;2023-03-01T04:27:42;24.35;;;15.75;;
26407;SDS011;14583;43.604;1.364;2023-03-01T04:30:08;23.42;;;15.43;;
26407;SDS011;14583;43.604;1.364;2023-03-01T04:32:34;25.27;;;15.45;;
26407;SDS011;14583;43.604;1.364;2023-03-01T04:35:00;21.17;;;14.88;;
26407;SDS011;14583;43.604;1.364;2023-03-01T04:37:26;22.25;;;15.10;;
26407;SDS011;14583;43.604;1.364;2023-03-01T04:39:52;25.30;;;16.50;;
26407;SDS011;14583;43.604;1.364;2023-03-01T04:42:18;22.52;;;15.95;;
26407;SDS011;14583;43.604;1.364;2023-03-01T04:44:44;26.33;;;16.52;;
26407;SDS011;14583;43.604;1.364;2023-03-01T04:47:11;25.70;;;16.58;;
26407;SDS011;14583;43.604;1.364;2023-03-01T04:49:37;25.10;;;16.75;;
26407;SDS011;14583;43.604;1.364;2023-03-01T04:52:03;23.27;;;16.27;;
26407;SDS011;14583;43.604;1.364;2023-03-01T04:54:32;24.63;;;17.17;;
26407;SDS011;14583;43.604;1.364;2023-03-01T04:56:59;33.00;;;17.20;;
26407;SDS011;14583;43.604;1.364;2023-03-01T04:59:25;26.45;;;16.40;;
26407;SDS011;14583;43.604;1.364;2023-03-01T05:01:51;27.83;;;16.33;;
26407;SDS011;14583;43.604;1.364;2023-03-01T05:04:20;28.38;;;17.67;;
26407;SDS011;14583;43.604;1.364;2023-03-01T05:06:50;26.65;;;17.80;;
26407;SDS011;14583;43.604;1.364;2023-03-01T05:09:15;24.55;;;17.05;;
26407;SDS011;14583;43.604;1.364;2023-03-01T05:11:41;25.50;;;17.45;;
26407;SDS011;14583;43.604;1.364;2023-03-01T05:14:07;25.88;;;17.50;;
26407;SDS011;14583;43.604;1.364;2023-03-01T05:16:34;26.17;;;16.55;;
26407;SDS011;14583;43.604;1.364;2023-03-01T05:19:02;32.05;;;16.13;;
26407;SDS011;14583;43.604;1.364;2023-03-01T05:21:40;24.52;;;15.90;;
26407;SDS011;14583;43.604;1.364;2023-03-01T05:24:25;29.38;;;17.25;;
26407;SDS011;14583;43.604;1.364;2023-03-01T05:26:51;21.63;;;15.90;;
26407;SDS011;14583;43.604;1.364;2023-03-01T05:29:18;23.70;;;15.98;;
26407;SDS011;14583;43.604;1.364;2023-03-01T05:31:49;28.00;;;16.15;;
26407;SDS011;14583;43.604;1.364;2023-03-01T05:34:27;24.52;;;15.63;;
26407;SDS011;14583;43.604;1.364;2023-03-01T05:36:54;24.75;;;16.25;;
26407;SDS011;14583;43.604;1.364;2023-03-01T05:39:20;23.50;;;16.13;;
26407;SDS011;14583;43.604;1.364;2023-03-01T05:41:48;25.05;;;16.35;;
26407;SDS011;14583;43.604;1.364;2023-03-01T05:44:16;24.40;;;17.38;;
26407;SDS011;14583;43.604;1.364;2023-03-01T05:46:42;26.52;;;18.20;;
26407;SDS011;14583;43.604;1.364;2023-03-01T05:49:08;25.50;;;17.02;;
26407;SDS011;14583;43.604;1.364;2023-03-01T05:51:33;24.77;;;17.58;;
26407;SDS011;14583;43.604;1.364;2023-03-01T05:53:59;24.13;;;17.17;;
26407;SDS011;14583;43.604;1.364;2023-03-01T05:56:25;39.15;;;19.08;;
26407;SDS011;14583;43.604;1.364;2023-03-01T05:58:50;27.23;;;17.27;;
26407;SDS011;14583;43.604;1.364;2023-03-01T06:01:16;26.48;;;16.55;;
26407;SDS011;14583;43.604;1.364;2023-03-01T06:03:42;30.05;;;16.88;;
26407;SDS011;14583;43.604;1.364;2023-03-01T06:06:07;27.05;;;17.20;;
26407;SDS011;14583;43.604;1.364;2023-03-01T06:08:33;28.20;;;17.40;;
26407;SDS011;14583;43.604;1.364;2023-03-01T06:10:59;29.80;;;18.08;;
26407;SDS011;14583;43.604;1.364;2023-03-01T06:13:24;28.58;;;17.35;;
26407;SDS011;14583;43.604;1.364;2023-03-01T06:15:50;25.88;;;17.23;;
26407;SDS011;14583;43.604;1.364;2023-03-01T06:18:16;26.77;;;17.73;;
26407;SDS011;14583;43.604;1.364;2023-03-01T06:20:42;25.77;;;17.17;;
26407;SDS011;14583;43.604;1.364;2023-03-01T06:23:07;28.33;;;17.52;;
26407;SDS011;14583;43.604;1.364;2023-03-01T06:25:33;28.95;;;18.48;;
26407;SDS011;14583;43.604;1.364;2023-03-01T06:27:59;31.60;;;17.95;;
26407;SDS011;14583;43.604;1.364;2023-03-01T06:30:25;27.08;;;18.40;;
26407;SDS011;14583;43.604;1.364;2023-03-01T06:32:51;31.08;;;17.48;;
26407;SDS011;14583;43.604;1.364;2023-03-01T06:35:18;30.48;;;18.25;;
26407;SDS011;14583;43.604;1.364;2023-03-01T06:37:45;30.17;;;18.77;;
26407;SDS011;14583;43.604;1.364;2023-03-01T06:40:12;30.17;;;18.73;;
26407;SDS011;14583;43.604;1.364;2023-03-01T06:42:40;29.08;;;18.38;;
26407;SDS011;14583;43.604;1.364;2023-03-01T06:45:07;28.55;;;18.33;;
26407;SDS011;14583;43.604;1.364;2023-03-01T06:47:34;27.05;;;17.15;;
26407;SDS011;14583;43.604;1.364;2023-03-01T06:50:00;32.17;;;18.20;;
26407;SDS011;14583;43.604;1.364;2023-03-01T06:52:26;26.27;;;17.85;;
26407;SDS011;14583;43.604;1.364;2023-03-01T06:54:52;31.23;;;18.63;;
26407;SDS011;14583;43.604;1.364;2023-03-01T06:57:18;32.22;;;20.08;;
26407;SDS011;14583;43.604;1.364;2023-03-01T06:59:44;37.85;;;19.00;;
26407;SDS011;14583;43.604;1.364;2023-03-01T07:02:12;35.00;;;21.50;;
26407;SDS011;14583;43.604;1.364;2023-03-01T07:04:40;32.65;;;19.40;;
26407;SDS011;14583;43.604;1.364;2023-03-01T07:07:06;28.75;;;19.73;;
26407;SDS011;14583;43.604;1.364;2023-03-01T07:09:32;29.52;;;19.50;;
26407;SDS011;14583;43.604;1.364;2023-03-01T07:11:57;34.83;;;19.73;;
26407;SDS011;14583;43.604;1.364;2023-03-01T07:14:23;28.40;;;19.33;;
26407;SDS011;14583;43.604;1.364;2023-03-01T07:16:50;33.55;;;20.50;;
26407;SDS011;14583;43.604;1.364;2023-03-01T07:19:18;29.92;;;18.92;;
26407;SDS011;14583;43.604;1.364;2023-03-01T07:21:47;31.83;;;19.10;;
26407;SDS011;14583;43.604;1.364;2023-03-01T07:24:13;30.27;;;19.05;;
26407;SDS011;14583;43.604;1.364;2023-03-01T07:26:38;32.22;;;19.42;;
26407;SDS011;14583;43.604;1.364;2023-03-01T07:29:05;30.17;;;19.42;;
26407;SDS011;14583;43.604;1.364;2023-03-01T07:31:32;31.90;;;17.83;;
26407;SDS011;14583;43.604;1.364;2023-03-01T07:34:01;29.45;;;19.48;;
26407;SDS011;14583;43.604;1.364;2023-03-01T07:36:26;38.72;;;20.60;;
26407;SDS011;14583;43.604;1.364;2023-03-01T07:38:52;40.80;;;21.23;;
26407;SDS011;14583;43.604;1.364;2023-03-01T07:41:18;34.83;;;22.15;;
26407;SDS011;14583;43.604;1.364;2023-03-01T07:43:44;33.92;;;22.00;;
26407;SDS011;14583;43.604;1.364;2023-03-01T07:46:09;31.05;;;20.52;;
26407;SDS011;14583;43.604;1.364;2023-03-01T07:48:35;33.67;;;21.15;;
26407;SDS011;14583;43.604;1.364;2023-03-01T07:51:02;30.65;;;20.27;;
26407;SDS011;14583;43.604;1.364;2023-03-01T07:53:30;33.70;;;20.98;;
26407;SDS011;14583;43.604;1.364;2023-03-01T07:56:03;34.90;;;21.45;;
26407;SDS011;14583;43.604;1.364;2023-03-01T07:58:33;33.55;;;21.45;;
26407;SDS011;14583;43.604;1.364;2023-03-01T08:01:01;35.90;;;20.98;;
26407;SDS011;14583;43.604;1.364;2023-03-01T08:03:27;34.53;;;21.35;;
26407;SDS011;14583;43.604;1.364;2023-03-01T08:05:53;41.92;;;21.98;;
26407;SDS011;14583;43.604;1.364;2023-03-01T08:08:19;29.33;;;19.40;;
26407;SDS011;14583;43.604;1.364;2023-03-01T08:10:45;36.63;;;21.02;;
26407;SDS011;14583;43.604;1.364;2023-03-01T08:13:10;45.17;;;21.13;;
26407;SDS011;14583;43.604;1.364;2023-03-01T08:15:36;32.92;;;20.92;;
26407;SDS011;14583;43.604;1.364;2023-03-01T08:18:01;44.60;;;22.10;;
26407;SDS011;14583;43.604;1.364;2023-03-01T08:20:27;33.67;;;20.88;;
26407;SDS011;14583;43.604;1.364;2023-03-01T08:22:53;29.77;;;20.13;;
26407;SDS011;14583;43.604;1.364;2023-03-01T08:25:18;35.90;;;20.25;;
26407;SDS011;14583;43.604;1.364;2023-03-01T08:27:44;36.05;;;21.65;;
26407;SDS011;14583;43.604;1.364;2023-03-01T08:30:10;28.42;;;18.65;;
26407;SDS011;14583;43.604;1.364;2023-03-01T08:32:37;39.13;;;19.90;;
26407;SDS011;14583;43.604;1.364;2023-03-01T08:35:03;30.23;;;19.92;;
26407;SDS011;14583;43.604;1.364;2023-03-01T08:37:29;33.80;;;20.25;;
26407;SDS011;14583;43.604;1.364;2023-03-01T08:39:58;34.97;;;20.90;;
26407;SDS011;14583;43.604;1.364;2023-03-01T08:42:25;32.30;;;19.83;;
26407;SDS011;14583;43.604;1.364;2023-03-01T08:44:51;36.08;;;19.40;;
26407;SDS011;14583;43.604;1.364;2023-03-01T08:47:16;34.15;;;20.02;;
26407;SDS011;14583;43.604;1.364;2023-03-01T08:49:42;34.75;;;21.23;;
26407;SDS011;14583;43.604;1.364;2023-03-01T08:52:08;32.30;;;20.92;;
26407;SDS011;14583;43.604;1.364;2023-03-01T08:54:33;32.03;;;20.48;;
26407;SDS011;14583;43.604;1.364;2023-03-01T08:57:01;32.97;;;21.55;;
26407;SDS011;14583;43.604;1.364;2023-03-01T08:59:27;33.05;;;20.42;;
26407;SDS011;14583;43.604;1.364;2023-03-01T09:01:54;33.10;;;20.92;;
26407;SDS011;14583;43.604;1.364;2023-03-01T09:04:20;31.13;;;20.70;;
26407;SDS011;14583;43.604;1.364;2023-03-01T09:06:46;40.88;;;20.75;;
26407;SDS011;14583;43.604;1.364;2023-03-01T09:09:14;32.75;;;20.02;;
26407;SDS011;14583;43.604;1.364;2023-03-01T09:11:41;34.60;;;20.63;;
26407;SDS011;14583;43.604;1.364;2023-03-01T09:14:08;37.33;;;20.23;;
26407;SDS011;14583;43.604;1.364;2023-03-01T09:16:34;28.85;;;18.67;;
26407;SDS011;14583;43.604;1.364;2023-03-01T09:19:01;31.13;;;18.08;;
26407;SDS011;14583;43.604;1.364;2023-03-01T09:21:27;29.90;;;16.73;;
26407;SDS011;14583;43.604;1.364;2023-03-01T09:23:52;26.98;;;14.05;;
26407;SDS011;14583;43.604;1.364;2023-03-01T09:26:19;17.45;;;12.20;;
26407;SDS011;14583;43.604;1.364;2023-03-01T09:28:47;17.27;;;11.73;;
26407;SDS011;14583;43.604;1.364;2023-03-01T09:31:16;13.32;;;9.95;;
26407;SDS011;14583;43.604;1.364;2023-03-01T09:33:45;15.90;;;9.73;;
26407;SDS011;14583;43.604;1.364;2023-03-01T09:36:15;11.05;;;8.75;;
26407;SDS011;14583;43.604;1.364;2023-03-01T09:38:43;12.05;;;9.43;;
26407;SDS011;14583;43.604;1.364;2023-03-01T09:41:33;13.48;;;9.10;;
26407;SDS011;14583;43.604;1.364;2023-03-01T09:44:01;13.18;;;8.50;;
26407;SDS011;14583;43.604;1.364;2023-03-01T09:46:35;12.30;;;9.02;;
26407;SDS011;14583;43.604;1.364;2023-03-01T09:49:09;10.70;;;8.02;;
26407;SDS011;14583;43.604;1.364;2023-03-01T09:54:32;11.32;;;8.02;;
26407;SDS011;14583;43.604;1.364;2023-03-01T10:02:42;10.70;;;7.82;;
26407;SDS011;14583;43.604;1.364;2023-03-01T10:10:37;14.30;;;8.57;;
26407;SDS011;14583;43.604;1.364;2023-03-01T10:13:21;9.25;;;7.28;;
26407;SDS011;14583;43.604;1.364;2023-03-01T10:15:50;10.57;;;7.97;;
26407;SDS011;14583;43.604;1.364;2023-03-01T10:18:27;12.10;;;8.50;;
26407;SDS011;14583;43.604;1.364;2023-03-01T10:20:58;14.43;;;8.40;;
26407;SDS011;14583;43.604;1.364;2023-03-01T10:23:27;12.32;;;8.63;;
26407;SDS011;14583;43.604;1.364;2023-03-01T10:31:34;11.88;;;7.75;;
26407;SDS011;14583;43.604;1.364;2023-03-01T10:34:17;10.45;;;8.45;;
26407;SDS011;14583;43.604;1.364;2023-03-01T10:36:44;11.02;;;8.55;;
26407;SDS011;14583;43.604;1.364;2023-03-01T10:39:20;12.88;;;8.85;;
26407;SDS011;14583;43.604;1.364;2023-03-01T10:42:33;13.07;;;7.95;;
26407;SDS011;14583;43.604;1.364;2023-03-01T10:44:45;15.15;;;7.95;;
26407;SDS011;14583;43.604;1.364;2023-03-01T10:47:16;10.60;;;7.80;;
26407;SDS011;14583;43.604;1.364;2023-03-01T10:49:55;13.43;;;8.95;;
26407;SDS011;14583;43.604;1.364;2023-03-01T10:52:23;11.80;;;8.50;;
26407;SDS011;14583;43.604;1.364;2023-03-01T10:54:51;11.55;;;8.82;;
26407;SDS011;14583;43.604;1.364;2023-03-01T10:57:30;11.07;;;8.65;;
26407;SDS011;14583;43.604;1.364;2023-03-01T11:02:38;11.82;;;8.43;;
26407;SDS011;14583;43.604;1.364;2023-03-01T11:10:19;9.20;;;7.45;;
26407;SDS011;14583;43.604;1.364;2023-03-01T11:12:50;13.30;;;7.50;;
26407;SDS011;14583;43.604;1.364;2023-03-01T11:15:24;13.23;;;7.82;;
26407;SDS011;14583;43.604;1.364;2023-03-01T11:17:52;13.48;;;7.78;;
26407;SDS011;14583;43.604;1.364;2023-03-01T11:23:02;10.65;;;7.72;;
26407;SDS011;14583;43.604;1.364;2023-03-01T11:25:35;10.02;;;7.57;;
26407;SDS011;14583;43.604;1.364;2023-03-01T11:28:04;11.02;;;7.28;;
26407;SDS011;14583;43.604;1.364;2023-03-01T11:30:39;11.65;;;7.85;;
26407;SDS011;14583;43.604;1.364;2023-03-01T11:36:13;10.02;;;7.50;;
26407;SDS011;14583;43.604;1.364;2023-03-01T11:38:48;10.15;;;7.53;;
26407;SDS011;14583;43.604;1.364;2023-03-01T11:41:18;9.05;;;7.35;;
26407;SDS011;14583;43.604;1.364;2023-03-01T12:02:37;12.68;;;8.68;;
26407;SDS011;14583;43.604;1.364;2023-03-01T12:07:53;12.52;;;8.07;;
26407;SDS011;14583;43.604;1.364;2023-03-01T12:10:29;9.88;;;8.50;;
26407;SDS011;14583;43.604;1.364;2023-03-01T12:13:10;10.88;;;8.05;;
26407;SDS011;14583;43.604;1.364;2023-03-01T12:27:12;9.82;;;7.38;;
26407;SDS011;14583;43.604;1.364;2023-03-01T12:30:02;10.18;;;7.47;;
26407;SDS011;14583;43.604;1.364;2023-03-01T12:38:30;9.57;;;7.63;;
26407;SDS011;14583;43.604;1.364;2023-03-01T12:49:40;9.68;;;7.80;;
26407;SDS011;14583;43.604;1.364;2023-03-01T12:52:14;9.93;;;8.40;;
26407;SDS011;14583;43.604;1.364;2023-03-01T12:54:50;15.75;;;8.38;;
26407;SDS011;14583;43.604;1.364;2023-03-01T12:57:21;10.60;;;8.30;;
26407;SDS011;14583;43.604;1.364;2023-03-01T13:00:25;10.85;;;8.07;;
26407;SDS011;14583;43.604;1.364;2023-03-01T13:08:25;9.18;;;7.53;;
26407;SDS011;14583;43.604;1.364;2023-03-01T13:10:58;14.07;;;7.40;;
26407;SDS011;14583;43.604;1.364;2023-03-01T13:13:30;10.43;;;7.47;;
26407;SDS011;14583;43.604;1.364;2023-03-01T13:15:56;8.15;;;7.13;;
26407;SDS011;14583;43.604;1.364;2023-03-01T13:20:50;11.63;;;7.40;;
26407;SDS011;14583;43.604;1.364;2023-03-01T13:23:31;9.02;;;7.07;;
26407;SDS011;14583;43.604;1.364;2023-03-01T13:26:00;9.10;;;6.85;;
26407;SDS011;14583;43.604;1.364;2023-03-01T13:33:46;10.35;;;7.40;;
26407;SDS011;14583;43.604;1.364;2023-03-01T13:46:42;8.85;;;6.95;;
26407;SDS011;14583;43.604;1.364;2023-03-01T13:49:11;8.38;;;7.13;;
26407;SDS011;14583;43.604;1.364;2023-03-01T13:51:41;7.78;;;6.97;;
26407;SDS011;14583;43.604;1.364;2023-03-01T13:54:11;10.57;;;7.00;;
26407;SDS011;14583;43.604;1.364;2023-03-01T13:56:39;11.38;;;7.95;;
26407;SDS011;14583;43.604;1.364;2023-03-01T13:59:15;11.25;;;7.88;;
26407;SDS011;14583;43.604;1.364;2023-03-01T14:01:54;11.70;;;7.72;;
26407;SDS011;14583;43.604;1.364;2023-03-01T14:04:25;9.73;;;8.02;;
26407;SDS011;14583;43.604;1.364;2023-03-01T14:09:43;8.02;;;7.22;;
26407;SDS011;14583;43.604;1.364;2023-03-01T14:15:06;10.55;;;7.63;;
26407;SDS011;14583;43.604;1.364;2023-03-01T14:18:33;10.82;;;7.47;;
26407;SDS011;14583;43.604;1.364;2023-03-01T14:20:40;9.55;;;7.80;;
26407;SDS011;14583;43.604;1.364;2023-03-01T14:23:14;10.57;;;7.75;;
26407;SDS011;14583;43.604;1.364;2023-03-01T14:25:49;8.50;;;7.43;;
26407;SDS011;14583;43.604;1.364;2023-03-01T14:28:18;9.95;;;7.13;;
26407;SDS011;14583;43.604;1.364;2023-03-01T14:33:30;9.68;;;7.40;;
26407;SDS011;14583;43.604;1.364;2023-03-01T14:38:43;12.18;;;8.23;;
26407;SDS011;14583;43.604;1.364;2023-03-01T14:41:14;10.15;;;7.85;;
26407;SDS011;14583;43.604;1.364;2023-03-01T14:44:06;11.85;;;7.78;;
26407;SDS011;14583;43.604;1.364;2023-03-01T14:46:32;8.50;;;7.05;;
26407;SDS011;14583;43.604;1.364;2023-03-01T14:49:02;8.48;;;7.22;;
26407;SDS011;14583;43.604;1.364;2023-03-01T14:51:54;9.40;;;7.45;;
26407;SDS011;14583;43.604;1.364;2023-03-01T14:57:00;8.32;;;6.75;;
26407;SDS011;14583;43.604;1.364;2023-03-01T14:59:26;8.35;;;7.45;;
26407;SDS011;14583;43.604;1.364;2023-03-01T15:01:53;10.82;;;7.53;;
26407;SDS011;14583;43.604;1.364;2023-03-01T15:04:21;8.20;;;7.20;;
26407;SDS011;14583;43.604;1.364;2023-03-01T15:06:52;14.80;;;8.13;;
26407;SDS011;14583;43.604;1.364;2023-03-01T15:09:20;10.73;;;8.23;;
26407;SDS011;14583;43.604;1.364;2023-03-01T15:11:47;9.98;;;7.82;;
26407;SDS011;14583;43.604;1.364;2023-03-01T15:14:25;9.05;;;7.28;;
26407;SDS011;14583;43.604;1.364;2023-03-01T15:16:52;8.65;;;7.10;;
26407;SDS011;14583;43.604;1.364;2023-03-01T15:19:18;9.80;;;7.50;;
26407;SDS011;14583;43.604;1.364;2023-03-01T15:21:46;9.07;;;7.43;;
26407;SDS011;14583;43.604;1.364;2023-03-01T15:24:17;8.95;;;7.03;;
26407;SDS011;14583;43.604;1.364;2023-03-01T15:29:27;8.63;;;7.10;;
26407;SDS011;14583;43.604;1.364;2023-03-01T15:37:00;9.40;;;6.05;;
26407;SDS011;14583;43.604;1.364;2023-03-01T15:39:34;6.43;;;5.63;;
26407;SDS011;14583;43.604;1.364;2023-03-01T15:44:38;6.80;;;6.10;;
26407;SDS011;14583;43.604;1.364;2023-03-01T15:47:26;12.40;;;5.75;;
26407;SDS011;14583;43.604;1.364;2023-03-01T15:49:55;6.80;;;6.03;;
26407;SDS011;14583;43.604;1.364;2023-03-01T15:52:24;7.60;;;6.10;;
26407;SDS011;14583;43.604;1.364;2023-03-01T15:54:56;6.75;;;5.82;;
26407;SDS011;14583;43.604;1.364;2023-03-01T15:57:27;7.05;;;5.72;;
26407;SDS011;14583;43.604;1.364;2023-03-01T15:59:53;6.85;;;6.15;;
26407;SDS011;14583;43.604;1.364;2023-03-01T16:02:18;6.13;;;5.57;;
26407;SDS011;14583;43.604;1.364;2023-03-01T16:04:47;6.70;;;5.28;;
26407;SDS011;14583;43.604;1.364;2023-03-01T16:07:16;6.57;;;5.80;;
26407;SDS011;14583;43.604;1.364;2023-03-01T16:09:42;8.32;;;6.20;;
26407;SDS011;14583;43.604;1.364;2023-03-01T16:12:12;6.78;;;6.07;;
26407;SDS011;14583;43.604;1.364;2023-03-01T16:14:39;9.95;;;5.82;;
26407;SDS011;14583;43.604;1.364;2023-03-01T16:17:05;7.53;;;5.78;;
26407;SDS011;14583;43.604;1.364;2023-03-01T16:19:32;6.93;;;5.60;;
26407;SDS011;14583;43.604;1.364;2023-03-01T16:21:58;7.63;;;5.63;;
26407;SDS011;14583;43.604;1.364;2023-03-01T16:24:23;5.93;;;5.32;;
26407;SDS011;14583;43.604;1.364;2023-03-01T16:26:50;6.15;;;5.55;;
26407;SDS011;14583;43.604;1.364;2023-03-01T16:29:16;7.97;;;5.60;;
26407;SDS011;14583;43.604;1.364;2023-03-01T16:31:42;8.40;;;6.15;;
26407;SDS011;14583;43.604;1.364;2023-03-01T16:34:07;6.03;;;5.50;;
26407;SDS011;14583;43.604;1.364;2023-03-01T16:36:33;6.93;;;5.93;;
26407;SDS011;14583;43.604;1.364;2023-03-01T16:38:59;6.80;;;5.82;;
26407;SDS011;14583;43.604;1.364;2023-03-01T16:41:26;6.68;;;5.82;;
26407;SDS011;14583;43.604;1.364;2023-03-01T16:43:52;8.15;;;5.85;;
26407;SDS011;14583;43.604;1.364;2023-03-01T16:48:45;6.90;;;6.15;;
26407;SDS011;14583;43.604;1.364;2023-03-01T16:51:11;6.75;;;6.05;;
26407;SDS011;14583;43.604;1.364;2023-03-01T16:53:37;7.97;;;6.63;;
26407;SDS011;14583;43.604;1.364;2023-03-01T16:56:07;6.50;;;5.90;;
26407;SDS011;14583;43.604;1.364;2023-03-01T16:58:35;6.88;;;6.18;;
26407;SDS011;14583;43.604;1.364;2023-03-01T17:01:13;6.95;;;6.13;;
26407;SDS011;14583;43.604;1.364;2023-03-01T17:03:41;9.02;;;7.13;;
26407;SDS011;14583;43.604;1.364;2023-03-01T17:06:09;7.75;;;6.53;;
26407;SDS011;14583;43.604;1.364;2023-03-01T17:08:38;6.90;;;6.18;;
26407;SDS011;14583;43.604;1.364;2023-03-01T17:13:30;7.72;;;6.97;;